Time;durP1;ratioP1;P1;durP2;ratioP2;P2;SDS_P1;SDS_P2;PMS_P1;PMS_P2;Temp;Humidity;BMP_temperature;BMP_pressure;BME280_temperature;BME280_humidity;BME280_pressure;Samples;Min_cycle;Max_cycle;Signal;HPM_P1;HPM_P2
2023/12/05 00:00:08;;;;;;;0.35;0.35;;;;;;;;;;5035828;28;20044;-87
2023/12/05 00:02:41;;;;;;;0.93;0.90;;;;;;;;;;5031993;28;20037;-87
2023/12/05 00:05:09;;;;;;;1.55;0.90;;;;;;;;;;5034291;28;20127;-88
2023/12/05 00:07:38;;;;;;;1.40;1.17;;;;;;;;;;5033561;28;20099;-87
2023/12/05 00:10:06;;;;;;;0.30;0.30;;;;;;;;;;5036757;28;20079;-87
2023/12/05 00:12:33;;;;;;;0.70;0.35;;;;;;;;;;5032024;28;20049;-87
2023/12/05 00:15:01;;;;;;;1.85;1.75;;;;;;;;;;5035894;28;20048;-87
2023/12/05 00:17:28;;;;;;;0.10;0.10;;;;;;;;;;5042027;28;20119;-87
2023/12/05 00:19:55;;;;;;;0.40;0.40;;;;;;;;;;5033679;28;20630;-86
2023/12/05 00:22:24;;;;;;;1.88;1.45;;;;;;;;;;5039000;22;20152;-77
2023/12/05 00:24:51;;;;;;;1.00;1.00;;;;;;;;;;5004718;28;20581;-77
2023/12/05 00:27:19;;;;;;;2.88;2.63;;;;;;;;;;4998661;28;20050;-76
2023/12/05 00:29:49;;;;;;;1.55;1.45;;;;;;;;;;5005996;28;20037;-76
2023/12/05 00:32:17;;;;;;;1.33;1.33;;;;;;;;;;5000134;28;20092;-76
2023/12/05 00:34:47;;;;;;;2.20;2.10;;;;;;;;;;5002567;28;20054;-76
2023/12/05 00:37:15;;;;;;;2.83;2.53;;;;;;;;;;5008922;28;20049;-76
2023/12/05 00:39:42;;;;;;;3.83;3.45;;;;;;;;;;5007683;28;20060;-75
2023/12/05 00:42:10;;;;;;;2.70;2.50;;;;;;;;;;5003460;28;20111;-75
2023/12/05 00:44:37;;;;;;;2.08;1.98;;;;;;;;;;5007061;28;20208;-75
2023/12/05 00:47:05;;;;;;;0.17;0.17;;;;;;;;;;5003581;28;20073;-75
2023/12/05 00:49:36;;;;;;;2.35;2.03;;;;;;;;;;5005243;28;20041;-76
2023/12/05 00:52:05;;;;;;;2.45;1.88;;;;;;;;;;5005764;28;20521;-75
2023/12/05 00:54:33;;;;;;;2.67;2.40;;;;;;;;;;5003264;28;20038;-75
2023/12/05 00:57:01;;;;;;;6.07;4.57;;;;;;;;;;5007001;28;20057;-76
2023/12/05 00:59:28;;;;;;;2.47;2.28;;;;;;;;;;5002428;28;20073;-75
2023/12/05 01:01:56;;;;;;;1.60;1.50;;;;;;;;;;5004255;28;20172;-76
2023/12/05 01:04:25;;;;;;;0.40;0.40;;;;;;;;;;5006634;28;20080;-75
2023/12/05 01:06:53;;;;;;;0.80;0.80;;;;;;;;;;5004861;28;20054;-76
2023/12/05 01:09:21;;;;;;;2.08;1.95;;;;;;;;;;5003575;28;20467;-76
2023/12/05 01:11:51;;;;;;;0.17;0.17;;;;;;;;;;5004693;28;20518;-75
2023/12/05 01:14:18;;;;;;;0.80;0.80;;;;;;;;;;5006328;28;20458;-75
2023/12/05 01:16:46;;;;;;;1.58;1.48;;;;;;;;;;5004895;28;20570;-76
2023/12/05 01:19:14;;;;;;;1.65;1.42;;;;;;;;;;4990632;28;20041;-76
2023/12/05 01:21:42;;;;;;;3.05;1.60;;;;;;;;;;5003948;28;20141;-75
2023/12/05 01:24:09;;;;;;;2.35;2.15;;;;;;;;;;5004547;28;20052;-76
2023/12/05 01:26:36;;;;;;;5.57;3.90;;;;;;;;;;5002241;28;20049;-75
2023/12/05 01:29:05;;;;;;;2.55;2.35;;;;;;;;;;5007976;28;20061;-75
2023/12/05 01:31:32;;;;;;;6.95;5.10;;;;;;;;;;5003004;28;20074;-76
2023/12/05 01:34:00;;;;;;;4.63;3.55;;;;;;;;;;5003563;28;20100;-76
2023/12/05 01:36:28;;;;;;;8.60;4.82;;;;;;;;;;5002144;28;20526;-76
2023/12/05 01:38:56;;;;;;;2.65;2.45;;;;;;;;;;5007868;28;20135;-75
2023/12/05 01:41:23;;;;;;;2.08;1.45;;;;;;;;;;5005409;28;20042;-76
2023/12/05 01:43:51;;;;;;;1.42;1.17;;;;;;;;;;5002978;28;20049;-75
2023/12/05 01:46:20;;;;;;;0.95;0.95;;;;;;;;;;4987411;28;20737;-76
2023/12/05 01:48:48;;;;;;;1.98;1.88;;;;;;;;;;4998506;28;20042;-75
2023/12/05 01:51:16;;;;;;;5.15;4.75;;;;;;;;;;5004074;28;20427;-75
2023/12/05 01:53:44;;;;;;;3.63;2.78;;;;;;;;;;5003080;28;20428;-76
2023/12/05 01:56:13;;;;;;;3.17;2.85;;;;;;;;;;5000874;28;20488;-76
2023/12/05 01:58:41;;;;;;;0.82;0.82;;;;;;;;;;4983959;28;20045;-75
2023/12/05 02:01:09;;;;;;;0.20;0.20;;;;;;;;;;4964730;28;20249;-75
2023/12/05 02:03:38;;;;;;;0.10;0.10;;;;;;;;;;4995884;28;20386;-75
2023/12/05 02:06:06;;;;;;;0.70;0.70;;;;;;;;;;4983790;28;20568;-76
2023/12/05 02:08:34;;;;;;;5.15;3.05;;;;;;;;;;4997533;28;20076;-75
2023/12/05 02:11:01;;;;;;;0.75;0.75;;;;;;;;;;5001060;28;20045;-75
2023/12/05 02:13:29;;;;;;;1.08;1.08;;;;;;;;;;4982867;28;20052;-76
2023/12/05 02:16:15;;;;;;;6.55;0.85;;;;;;;;;;5002417;28;20097;-75
2023/12/05 02:18:51;;;;;;;1.85;1.15;;;;;;;;;;5002787;28;20054;-75
2023/12/05 02:21:25;;;;;;;2.83;2.50;;;;;;;;;;5003184;28;20157;-75
2023/12/05 02:23:59;;;;;;;2.70;2.50;;;;;;;;;;5000832;28;20798;-75
2023/12/05 02:26:47;;;;;;;0.73;0.73;;;;;;;;;;5003302;28;20073;-75
2023/12/05 02:29:15;;;;;;;2.65;2.47;;;;;;;;;;5000525;28;20050;-75
2023/12/05 02:31:42;;;;;;;1.27;1.27;;;;;;;;;;5001694;28;20072;-75
2023/12/05 02:34:10;;;;;;;2.03;1.83;;;;;;;;;;5002815;28;20054;-76
2023/12/05 02:36:45;;;;;;;2.58;2.38;;;;;;;;;;5001598;28;20034;-76
2023/12/05 02:39:28;;;;;;;2.85;2.55;;;;;;;;;;5002239;28;20424;-75
2023/12/05 02:41:57;;;;;;;2.25;2.15;;;;;;;;;;5000870;28;20042;-76
2023/12/05 02:44:27;;;;;;;1.75;1.65;;;;;;;;;;5001920;28;20191;-75
2023/12/05 02:46:56;;;;;;;;;;;;;;;;;;5000920;28;20042;-76
2023/12/05 02:49:24;;;;;;;5.57;2.88;;;;;;;;;;4998591;28;20045;-76
2023/12/05 02:51:53;;;;;;;0.20;0.20;;;;;;;;;;5003895;28;20046;-75
2023/12/05 02:54:20;;;;;;;0.55;0.50;;;;;;;;;;4984693;28;20155;-75
2023/12/05 02:56:48;;;;;;;0.73;0.73;;;;;;;;;;4989970;28;20058;-75
2023/12/05 02:59:15;;;;;;;0.15;0.15;;;;;;;;;;5006884;28;20511;-76
2023/12/05 03:01:43;;;;;;;0.60;0.60;;;;;;;;;;5000279;28;20053;-75
2023/12/05 03:04:11;;;;;;;2.60;2.47;;;;;;;;;;5002511;28;20078;-75
2023/12/05 03:06:38;;;;;;;1.70;1.60;;;;;;;;;;5007537;28;20419;-76
2023/12/05 03:09:06;;;;;;;1.55;1.45;;;;;;;;;;5008285;28;20574;-76
2023/12/05 03:11:33;;;;;;;2.67;1.55;;;;;;;;;;5005273;28;20049;-76
2023/12/05 03:14:06;;;;;;;0.47;0.47;;;;;;;;;;5004336;28;20054;-75
2023/12/05 03:16:34;;;;;;;0.60;0.60;;;;;;;;;;5004683;28;20046;-76
2023/12/05 03:19:01;;;;;;;0.98;0.93;;;;;;;;;;5001767;28;20516;-75
2023/12/05 03:21:30;;;;;;;0.73;0.73;;;;;;;;;;5008293;28;20052;-76
2023/12/05 03:23:58;;;;;;;0.95;0.90;;;;;;;;;;5005887;28;20469;-75
2023/12/05 03:26:26;;;;;;;0.10;0.10;;;;;;;;;;5005563;28;20980;-75
2023/12/05 03:28:53;;;;;;;0.65;0.65;;;;;;;;;;5002963;28;20046;-76
2023/12/05 03:31:21;;;;;;;2.75;2.05;;;;;;;;;;5006941;28;20484;-74
2023/12/05 03:33:48;;;;;;;2.28;2.08;;;;;;;;;;5005114;28;20061;-76
2023/12/05 03:36:16;;;;;;;8.63;2.47;;;;;;;;;;5004564;28;20141;-75
2023/12/05 03:38:44;;;;;;;4.95;2.67;;;;;;;;;;4988520;28;20060;-75
2023/12/05 03:41:11;;;;;;;0.65;0.65;;;;;;;;;;5006455;28;20064;-76
2023/12/05 03:43:39;;;;;;;0.63;0.63;;;;;;;;;;5009192;28;20543;-76
2023/12/05 03:46:06;;;;;;;2.78;2.50;;;;;;;;;;5004083;28;20038;-76
2023/12/05 03:48:34;;;;;;;2.63;2.42;;;;;;;;;;5007663;28;20042;-76
2023/12/05 03:51:02;;;;;;;7.72;5.78;;;;;;;;;;5005683;28;20411;-75
2023/12/05 03:53:30;;;;;;;11.80;7.53;;;;;;;;;;5006295;28;20046;-76
2023/12/05 03:55:57;;;;;;;2.92;2.05;;;;;;;;;;5004484;28;20168;-76
2023/12/05 03:58:25;;;;;;;2.38;2.28;;;;;;;;;;5002351;28;20108;-76
2023/12/05 04:00:53;;;;;;;0.65;0.65;;;;;;;;;;4987627;28;20065;-76
2023/12/05 04:03:20;;;;;;;1.15;1.08;;;;;;;;;;5006017;28;20072;-75
2023/12/05 04:05:48;;;;;;;1.33;1.27;;;;;;;;;;4985234;28;20053;-75
2023/12/05 04:08:16;;;;;;;0.10;0.10;;;;;;;;;;5008070;28;20124;-77
2023/12/05 04:10:43;;;;;;;0.35;0.35;;;;;;;;;;5018019;23;20041;-78
2023/12/05 04:13:11;;;;;;;0.68;0.68;;;;;;;;;;5021452;28;20050;-78
2023/12/05 04:15:40;;;;;;;0.10;0.10;;;;;;;;;;5022378;28;20041;-78
2023/12/05 04:18:08;;;;;;;0.20;0.20;;;;;;;;;;5025720;28;20154;-77
2023/12/05 04:20:36;;;;;;;1.40;1.30;;;;;;;;;;5003752;28;20037;-78
2023/12/05 04:23:03;;;;;;;2.90;2.72;;;;;;;;;;5024670;28;20037;-78
2023/12/05 04:25:31;;;;;;;0.40;0.40;;;;;;;;;;5028279;28;20053;-78
2023/12/05 04:27:58;;;;;;;0.50;0.50;;;;;;;;;;5011546;28;20489;-78
2023/12/05 04:30:26;;;;;;;1.55;0.98;;;;;;;;;;5007727;28;20572;-77
2023/12/05 04:32:53;;;;;;;4.85;2.08;;;;;;;;;;5026990;28;20046;-78
2023/12/05 04:35:22;;;;;;;0.77;0.77;;;;;;;;;;5023910;28;20422;-77
2023/12/05 04:37:49;;;;;;;0.10;0.10;;;;;;;;;;5027075;28;20045;-78
2023/12/05 04:40:19;;;;;;;1.13;0.88;;;;;;;;;;5009633;28;20566;-78
2023/12/05 04:42:46;;;;;;;1.00;1.00;;;;;;;;;;5023527;28;20041;-78
2023/12/05 04:45:14;;;;;;;0.85;0.85;;;;;;;;;;5005977;28;20068;-78
2023/12/05 04:47:41;;;;;;;3.58;2.53;;;;;;;;;;5020906;28;20411;-78
2023/12/05 04:50:09;;;;;;;1.88;1.75;;;;;;;;;;5017926;28;20523;-78
2023/12/05 04:52:36;;;;;;;2.08;1.98;;;;;;;;;;5012624;28;20049;-77
2023/12/05 04:55:04;;;;;;;0.75;0.75;;;;;;;;;;5011063;28;20096;-78
2023/12/05 04:57:31;;;;;;;0.80;0.80;;;;;;;;;;5017589;28;20418;-78
2023/12/05 04:59:59;;;;;;;2.05;1.83;;;;;;;;;;5015284;28;20092;-78
2023/12/05 05:02:26;;;;;;;0.32;0.32;;;;;;;;;;5016956;28;20046;-77
2023/12/05 05:04:54;;;;;;;2.17;2.03;;;;;;;;;;5019808;28;20049;-77
2023/12/05 05:07:22;;;;;;;4.28;2.63;;;;;;;;;;5019291;28;20057;-78
2023/12/05 05:09:50;;;;;;;1.50;1.10;;;;;;;;;;5018192;28;20061;-78
2023/12/05 05:12:17;;;;;;;3.17;2.88;;;;;;;;;;5014298;28;20123;-78
2023/12/05 05:14:44;;;;;;;1.40;1.30;;;;;;;;;;5016443;28;20048;-77
2023/12/05 05:17:12;;;;;;;4.05;3.00;;;;;;;;;;5014885;28;20050;-78
2023/12/05 05:19:39;;;;;;;2.15;2.05;;;;;;;;;;5012332;28;20058;-78
2023/12/05 05:22:07;;;;;;;2.92;1.05;;;;;;;;;;5015918;28;20495;-78
2023/12/05 05:24:34;;;;;;;0.38;0.38;;;;;;;;;;5000089;28;20049;-77
2023/12/05 05:27:02;;;;;;;5.30;4.88;;;;;;;;;;5012930;28;20050;-78
2023/12/05 05:29:30;;;;;;;1.52;0.95;;;;;;;;;;5006787;28;20380;-78
2023/12/05 05:31:57;;;;;;;2.40;2.13;;;;;;;;;;5007326;28;20153;-79
2023/12/05 05:34:25;;;;;;;1.73;1.60;;;;;;;;;;5012370;28;20252;-78
2023/12/05 05:36:52;;;;;;;2.55;1.98;;;;;;;;;;5001430;28;20045;-78
2023/12/05 05:39:20;;;;;;;1.02;1.02;;;;;;;;;;5011592;28;20045;-78
2023/12/05 05:41:48;;;;;;;2.15;2.00;;;;;;;;;;5017290;28;20586;-78
2023/12/05 05:44:16;;;;;;;2.22;1.55;;;;;;;;;;5016744;28;20048;-79
2023/12/05 05:46:45;;;;;;;2.83;2.30;;;;;;;;;;5018328;28;20046;-77
2023/12/05 05:49:13;;;;;;;1.67;1.55;;;;;;;;;;5015534;28;20132;-79
2023/12/05 05:51:40;;;;;;;2.90;2.70;;;;;;;;;;5001937;28;20045;-78
2023/12/05 05:54:08;;;;;;;4.28;1.77;;;;;;;;;;5018381;28;20450;-79
2023/12/05 05:56:39;;;;;;;2.05;1.42;;;;;;;;;;5017544;28;20041;-77
2023/12/05 05:59:06;;;;;;;1.55;1.52;;;;;;;;;;5022684;28;20046;-78
2023/12/05 06:01:34;;;;;;;2.92;1.65;;;;;;;;;;5013223;28;20053;-77
2023/12/05 06:04:02;;;;;;;2.85;1.80;;;;;;;;;;5001953;28;20054;-78
2023/12/05 06:06:30;;;;;;;0.30;0.30;;;;;;;;;;5019839;28;20095;-78
2023/12/05 06:08:58;;;;;;;1.75;1.52;;;;;;;;;;5022180;28;20061;-76
2023/12/05 06:11:25;;;;;;;1.80;1.70;;;;;;;;;;5024047;28;20050;-78
2023/12/05 06:13:54;;;;;;;1.40;1.25;;;;;;;;;;5016022;28;20056;-78
2023/12/05 06:16:21;;;;;;;0.82;0.65;;;;;;;;;;5019693;28;20045;-77
2023/12/05 06:18:49;;;;;;;0.95;0.95;;;;;;;;;;5020276;28;20065;-77
2023/12/05 06:21:17;;;;;;;1.17;1.13;;;;;;;;;;5019995;28;20048;-76
2023/12/05 06:23:44;;;;;;;1.45;1.30;;;;;;;;;;5022846;28;20112;-77
2023/12/05 06:26:12;;;;;;;1.67;1.58;;;;;;;;;;5021954;28;20411;-77
2023/12/05 06:28:40;;;;;;;1.33;1.30;;;;;;;;;;5022695;28;20060;-78
2023/12/05 06:31:08;;;;;;;2.22;1.23;;;;;;;;;;5022452;28;20041;-77
2023/12/05 06:33:35;;;;;;;1.17;1.10;;;;;;;;;;5021940;28;20150;-77
2023/12/05 06:36:03;;;;;;;0.82;0.82;;;;;;;;;;5020519;28;20408;-77
2023/12/05 06:38:31;;;;;;;3.22;1.48;;;;;;;;;;5005318;28;20041;-77
2023/12/05 06:40:58;;;;;;;2.65;2.33;;;;;;;;;;5021805;28;20539;-77
2023/12/05 06:43:26;;;;;;;2.35;2.20;;;;;;;;;;5022316;28;20053;-76
2023/12/05 06:45:53;;;;;;;3.30;3.05;;;;;;;;;;5022522;28;20049;-76
2023/12/05 06:48:21;;;;;;;0.52;0.52;;;;;;;;;;5019530;28;20473;-77
2023/12/05 06:50:48;;;;;;;1.27;1.08;;;;;;;;;;5021113;28;20049;-77
2023/12/05 06:53:16;;;;;;;0.50;0.50;;;;;;;;;;5020505;28;20049;-77
2023/12/05 06:55:43;;;;;;;1.45;0.77;;;;;;;;;;5022981;28;20482;-77
2023/12/05 06:58:11;;;;;;;4.75;3.08;;;;;;;;;;5015770;28;20426;-76
2023/12/05 07:00:38;;;;;;;1.35;0.80;;;;;;;;;;5012673;28;20550;-77
2023/12/05 07:03:06;;;;;;;1.00;1.00;;;;;;;;;;5022390;28;20052;-77
2023/12/05 07:05:33;;;;;;;0.25;0.25;;;;;;;;;;5020815;28;20050;-76
2023/12/05 07:08:01;;;;;;;3.05;2.50;;;;;;;;;;5020761;28;20137;-79
2023/12/05 07:10:28;;;;;;;2.42;2.22;;;;;;;;;;5019813;28;20554;-78
2023/12/05 07:12:56;;;;;;;2.28;2.17;;;;;;;;;;5019768;28;20046;-78
2023/12/05 07:15:23;;;;;;;1.42;1.33;;;;;;;;;;5014413;28;20226;-78
2023/12/05 07:17:52;;;;;;;2.22;1.55;;;;;;;;;;5009472;28;20518;-77
2023/12/05 07:20:20;;;;;;;1.75;0.85;;;;;;;;;;5011956;28;20041;-78
2023/12/05 07:22:47;;;;;;;0.95;0.95;;;;;;;;;;5015248;28;20056;-78
2023/12/05 07:25:15;;;;;;;2.42;2.22;;;;;;;;;;5012873;28;20557;-76
2023/12/05 07:27:43;;;;;;;0.40;0.40;;;;;;;;;;5010088;28;20128;-78
2023/12/05 07:30:10;;;;;;;3.78;3.38;;;;;;;;;;5008727;28;20138;-77
2023/12/05 07:32:38;;;;;;;7.28;3.90;;;;;;;;;;5012685;28;20049;-77
2023/12/05 07:35:07;;;;;;;1.48;1.38;;;;;;;;;;5003782;28;20053;-77
2023/12/05 07:37:35;;;;;;;1.38;1.27;;;;;;;;;;5006086;28;20058;-77
2023/12/05 07:40:05;;;;;;;1.80;1.63;;;;;;;;;;5004119;28;20053;-77
2023/12/05 07:42:33;;;;;;;3.50;1.75;;;;;;;;;;5003838;28;20247;-76
2023/12/05 07:45:01;;;;;;;1.05;1.05;;;;;;;;;;5002204;28;20049;-75
2023/12/05 07:47:29;;;;;;;0.50;0.50;;;;;;;;;;5007214;28;20262;-77
2023/12/05 07:49:57;;;;;;;0.50;0.50;;;;;;;;;;5001476;28;20505;-75
2023/12/05 07:52:25;;;;;;;0.10;0.10;;;;;;;;;;4986450;28;20053;-77
2023/12/05 07:54:52;;;;;;;1.10;1.00;;;;;;;;;;4998163;28;20057;-76
2023/12/05 07:57:22;;;;;;;0.68;0.68;;;;;;;;;;4991235;28;20088;-76
2023/12/05 07:59:50;;;;;;;2.53;1.90;;;;;;;;;;5001477;28;20136;-77
2023/12/05 08:02:17;;;;;;;0.77;0.77;;;;;;;;;;4985524;28;20128;-76
2023/12/05 08:04:45;;;;;;;1.55;1.33;;;;;;;;;;4989568;28;20042;-75
2023/12/05 08:07:13;;;;;;;1.48;1.38;;;;;;;;;;4991810;28;20053;-76
2023/12/05 08:09:40;;;;;;;2.83;1.40;;;;;;;;;;5010569;28;20462;-75
2023/12/05 08:12:08;;;;;;;2.63;0.98;;;;;;;;;;5013997;28;20061;-77
2023/12/05 08:14:36;;;;;;;1.05;1.05;;;;;;;;;;4989850;28;20135;-76
2023/12/05 08:17:04;;;;;;;0.40;0.40;;;;;;;;;;5007717;28;20046;-76
2023/12/05 08:19:33;;;;;;;0.45;0.45;;;;;;;;;;5010517;28;20059;-77
2023/12/05 08:22:01;;;;;;;0.17;0.17;;;;;;;;;;5013474;28;20045;-77
2023/12/05 08:24:28;;;;;;;5.15;4.72;;;;;;;;;;4995651;28;20049;-75
2023/12/05 08:26:56;;;;;;;0.40;0.40;;;;;;;;;;5013508;28;20567;-75
2023/12/05 08:29:23;;;;;;;0.68;0.68;;;;;;;;;;5011498;28;20061;-75
2023/12/05 08:31:51;;;;;;;1.55;1.05;;;;;;;;;;5011708;28;20115;-75
2023/12/05 08:34:19;;;;;;;1.20;1.15;;;;;;;;;;5015742;28;20053;-76
2023/12/05 08:36:46;;;;;;;3.08;2.67;;;;;;;;;;5017932;28;20048;-75
2023/12/05 08:39:14;;;;;;;0.20;0.20;;;;;;;;;;5017375;28;20140;-76
2023/12/05 08:41:41;;;;;;;0.70;0.70;;;;;;;;;;5014421;28;20049;-76
2023/12/05 08:44:09;;;;;;;0.40;0.40;;;;;;;;;;5016712;28;20037;-78
2023/12/05 08:46:37;;;;;;;0.80;0.80;;;;;;;;;;5025352;28;20095;-77
2023/12/05 08:49:05;;;;;;;0.20;0.20;;;;;;;;;;5028744;28;20059;-78
2023/12/05 08:51:33;;;;;;;2.20;1.17;;;;;;;;;;5025509;28;20038;-78
2023/12/05 08:54:00;;;;;;;2.65;1.77;;;;;;;;;;5006513;28;20141;-80
2023/12/05 08:56:28;;;;;;;4.80;3.63;;;;;;;;;;5026300;28;20056;-80
2023/12/05 08:58:55;;;;;;;1.77;1.70;;;;;;;;;;5026157;28;20048;-81
2023/12/05 09:01:24;;;;;;;2.15;1.95;;;;;;;;;;5009868;28;20542;-81
2023/12/05 09:03:51;;;;;;;1.10;1.05;;;;;;;;;;5020375;28;20045;-78
2023/12/05 09:06:19;;;;;;;0.57;0.55;;;;;;;;;;5018268;28;20057;-84
2023/12/05 09:08:47;;;;;;;1.70;1.30;;;;;;;;;;5023245;28;20045;-81
2023/12/05 09:11:14;;;;;;;2.83;2.05;;;;;;;;;;5023328;28;20049;-83
2023/12/05 09:13:42;;;;;;;2.03;1.48;;;;;;;;;;5024741;28;20633;-78
2023/12/05 09:16:09;;;;;;;4.72;2.08;;;;;;;;;;5006291;28;20049;-80
2023/12/05 09:18:37;;;;;;;0.10;0.10;;;;;;;;;;5023793;28;20132;-82
2023/12/05 09:21:05;;;;;;;0.80;0.80;;;;;;;;;;5023086;28;20448;-81
2023/12/05 09:23:32;;;;;;;1.55;1.45;;;;;;;;;;5024637;28;20471;-82
2023/12/05 09:26:00;;;;;;;0.40;0.40;;;;;;;;;;5023952;28;20224;-78
2023/12/05 09:28:28;;;;;;;0.43;0.43;;;;;;;;;;5020259;28;20962;-85
2023/12/05 09:30:55;;;;;;;2.15;2.05;;;;;;;;;;5003122;28;20060;-80
2023/12/05 09:33:23;;;;;;;1.83;1.67;;;;;;;;;;5022337;28;20491;-77
2023/12/05 09:35:51;;;;;;;1.30;1.30;;;;;;;;;;5003199;28;20061;-78
2023/12/05 09:38:18;;;;;;;6.10;4.38;;;;;;;;;;5017960;28;20049;-78
2023/12/05 09:40:46;;;;;;;2.90;2.17;;;;;;;;;;5017316;28;20577;-78
2023/12/05 09:43:15;;;;;;;3.10;2.80;;;;;;;;;;5017220;28;20080;-79
2023/12/05 09:45:45;;;;;;;0.57;0.57;;;;;;;;;;5016369;28;20132;-85
2023/12/05 09:48:15;;;;;;;2.83;2.58;;;;;;;;;;5017254;28;20068;-83
2023/12/05 09:50:43;;;;;;;0.85;0.80;;;;;;;;;;5018129;28;20048;-81
2023/12/05 09:53:11;;;;;;;0.50;0.50;;;;;;;;;;5020847;28;20060;-78
2023/12/05 09:55:39;;;;;;;1.73;1.63;;;;;;;;;;5016201;28;20482;-80
2023/12/05 09:58:07;;;;;;;1.55;1.45;;;;;;;;;;5016488;28;20041;-82
2023/12/05 10:00:35;;;;;;;1.05;1.05;;;;;;;;;;5002257;28;20064;-81
2023/12/05 10:03:08;;;;;;;1.02;1.02;;;;;;;;;;5019297;28;20080;-80
2023/12/05 10:05:38;;;;;;;0.75;0.75;;;;;;;;;;5017760;28;20045;-80
2023/12/05 10:08:06;;;;;;;0.43;0.43;;;;;;;;;;5017049;28;20415;-79
2023/12/05 10:10:38;;;;;;;1.48;0.98;;;;;;;;;;5017167;28;20041;-80
2023/12/05 10:13:06;;;;;;;0.17;0.17;;;;;;;;;;5038076;23;20060;-87
2023/12/05 10:15:34;;;;;;;0.68;0.68;;;;;;;;;;5038656;28;20045;-87
2023/12/05 10:18:02;;;;;;;0.10;0.10;;;;;;;;;;5041504;28;20048;-87
2023/12/05 10:20:29;;;;;;;0.50;0.50;;;;;;;;;;5040059;28;20049;-87
2023/12/05 10:22:57;;;;;;;1.27;1.17;;;;;;;;;;5038206;28;20127;-86
2023/12/05 10:25:24;;;;;;;0.45;0.45;;;;;;;;;;5038455;28;20053;-87
2023/12/05 10:28:06;;;;;;;0.10;0.10;;;;;;;;;;5034482;28;20075;-88
2023/12/05 10:30:33;;;;;;;;;;;;;;;;;;5026868;28;20048;-88
2023/12/05 10:33:11;;;;;;;0.30;0.30;;;;;;;;;;5041251;28;19931;-86
2023/12/05 10:35:39;;;;;;;0.50;0.50;;;;;;;;;;5038158;28;20131;-87
2023/12/05 10:38:11;;;;;;;0.68;0.68;;;;;;;;;;5038142;28;20126;-86
2023/12/05 10:40:52;;;;;;;0.30;0.30;;;;;;;;;;5039901;28;20065;-87
2023/12/05 10:43:20;;;;;;;1.13;1.13;;;;;;;;;;5037355;28;20049;-87
2023/12/05 10:45:48;;;;;;;2.28;1.48;;;;;;;;;;5038090;28;20044;-87
2023/12/05 10:48:17;;;;;;;1.40;1.30;;;;;;;;;;5039443;28;20040;-87
2023/12/05 10:50:48;;;;;;;0.28;0.20;;;;;;;;;;5038990;28;20411;-86
2023/12/05 10:53:16;;;;;;;0.20;0.20;;;;;;;;;;5024335;28;20431;-87
2023/12/05 10:55:43;;;;;;;2.65;1.83;;;;;;;;;;5037473;28;20041;-86
2023/12/05 10:58:11;;;;;;;5.18;1.95;;;;;;;;;;5036508;28;20099;-87
2023/12/05 11:00:39;;;;;;;0.40;0.40;;;;;;;;;;5039092;28;20033;-86
2023/12/05 11:03:07;;;;;;;1.48;1.38;;;;;;;;;;5039422;28;20044;-86
2023/12/05 11:05:35;;;;;;;2.38;2.20;;;;;;;;;;5037554;28;20039;-87
2023/12/05 11:08:04;;;;;;;6.97;2.33;;;;;;;;;;5040647;28;20057;-87
2023/12/05 11:10:31;;;;;;;2.65;2.08;;;;;;;;;;5039938;28;20326;-89
2023/12/05 11:13:01;;;;;;;1.38;1.27;;;;;;;;;;5018496;28;20069;-86
2023/12/05 11:15:29;;;;;;;0.30;0.30;;;;;;;;;;5038005;28;20127;-86
2023/12/05 11:18:00;;;;;;;2.03;1.85;;;;;;;;;;5036641;28;20041;-87
2023/12/05 11:20:28;;;;;;;1.95;1.55;;;;;;;;;;5019623;28;20065;-88
2023/12/05 11:23:02;;;;;;;0.73;0.73;;;;;;;;;;5040510;28;20036;-86
2023/12/05 11:25:44;;;;;;;0.10;0.10;;;;;;;;;;5037538;28;20049;-84
2023/12/05 11:28:30;;;;;;;0.70;0.70;;;;;;;;;;5038083;28;20067;-85
2023/12/05 11:31:01;;;;;;;0.10;0.10;;;;;;;;;;5041902;28;20049;-84
2023/12/05 11:33:29;;;;;;;0.20;0.20;;;;;;;;;;5038886;28;20287;-85
2023/12/05 11:35:57;;;;;;;2.47;1.83;;;;;;;;;;5037231;28;20053;-87
2023/12/05 11:38:25;;;;;;;1.63;1.52;;;;;;;;;;5039557;28;20045;-85
2023/12/05 11:41:12;;;;;;;2.00;1.90;;;;;;;;;;5038943;28;20053;-85
2023/12/05 11:43:42;;;;;;;2.20;0.47;;;;;;;;;;5038294;28;20128;-85
2023/12/05 11:46:10;;;;;;;1.80;1.02;;;;;;;;;;5038064;28;20052;-85
2023/12/05 11:48:37;;;;;;;2.08;1.90;;;;;;;;;;5037826;28;20063;-85
2023/12/05 11:51:05;;;;;;;1.02;0.98;;;;;;;;;;5036612;28;20038;-85
2023/12/05 11:53:32;;;;;;;0.38;0.38;;;;;;;;;;5040025;28;20045;-85
2023/12/05 11:55:59;;;;;;;1.10;1.10;;;;;;;;;;5046672;28;20134;-85
2023/12/05 11:58:28;;;;;;;0.10;0.10;;;;;;;;;;5044366;28;20127;-86
2023/12/05 12:01:09;;;;;;;1.25;1.15;;;;;;;;;;5042033;28;20049;-86
2023/12/05 12:03:45;;;;;;;1.60;1.50;;;;;;;;;;5042706;28;20041;-89
2023/12/05 12:06:14;;;;;;;3.30;1.48;;;;;;;;;;5043072;28;20287;-84
2023/12/05 12:08:44;;;;;;;0.95;0.95;;;;;;;;;;5044548;28;20507;-85
2023/12/05 12:11:12;;;;;;;0.30;0.30;;;;;;;;;;5046904;28;20055;-86
2023/12/05 12:13:40;;;;;;;2.15;1.50;;;;;;;;;;5045203;28;20573;-85
2023/12/05 12:16:07;;;;;;;0.57;0.52;;;;;;;;;;5049472;28;20045;-86
2023/12/05 12:18:35;;;;;;;3.03;2.83;;;;;;;;;;5049397;28;20123;-85
2023/12/05 12:21:14;;;;;;;1.33;1.13;;;;;;;;;;5049415;28;20168;-85
2023/12/05 12:23:41;;;;;;;1.98;1.85;;;;;;;;;;5048044;28;20041;-85
2023/12/05 12:26:09;;;;;;;6.43;3.70;;;;;;;;;;5048412;28;20065;-85
2023/12/05 12:28:37;;;;;;;0.82;0.52;;;;;;;;;;5047778;28;20101;-85
2023/12/05 12:31:04;;;;;;;0.25;0.25;;;;;;;;;;5045301;28;20084;-85
2023/12/05 12:33:36;;;;;;;0.52;0.32;;;;;;;;;;5049622;28;20048;-85
2023/12/05 12:36:04;;;;;;;0.20;0.20;;;;;;;;;;5054077;22;20411;-77
2023/12/05 12:38:33;;;;;;;2.17;1.98;;;;;;;;;;5026560;28;20046;-78
2023/12/05 12:41:01;;;;;;;1.10;1.10;;;;;;;;;;5027845;28;20678;-78
2023/12/05 12:43:29;;;;;;;0.88;0.88;;;;;;;;;;5025980;28;20045;-78
2023/12/05 12:45:57;;;;;;;6.13;5.30;;;;;;;;;;5007420;28;20615;-77
2023/12/05 12:48:24;;;;;;;4.22;3.28;;;;;;;;;;5027223;28;20049;-77
2023/12/05 12:50:53;;;;;;;7.00;5.15;;;;;;;;;;5010276;28;20152;-78
2023/12/05 12:53:21;;;;;;;1.45;1.20;;;;;;;;;;5027564;28;20076;-79
2023/12/05 12:55:48;;;;;;;1.90;0.95;;;;;;;;;;5025177;28;20045;-77
2023/12/05 12:58:16;;;;;;;1.30;1.20;;;;;;;;;;5008898;28;20050;-77
2023/12/05 13:00:47;;;;;;;1.10;1.10;;;;;;;;;;5026046;28;20045;-78
2023/12/05 13:03:14;;;;;;;0.10;0.10;;;;;;;;;;5027680;28;20092;-77
2023/12/05 13:05:42;;;;;;;2.83;2.60;;;;;;;;;;5025106;28;20140;-77
2023/12/05 13:08:10;;;;;;;1.77;1.65;;;;;;;;;;5027603;28;20419;-77
2023/12/05 13:10:38;;;;;;;0.17;0.17;;;;;;;;;;5009242;28;20573;-78
2023/12/05 13:13:05;;;;;;;0.65;0.65;;;;;;;;;;5004376;28;20053;-78
2023/12/05 13:15:33;;;;;;;0.52;0.25;;;;;;;;;;5019662;28;20046;-78
2023/12/05 13:18:05;;;;;;;0.20;0.20;;;;;;;;;;5019854;28;20174;-78
2023/12/05 13:20:47;;;;;;;0.35;0.32;;;;;;;;;;5019647;28;20076;-79
2023/12/05 13:23:15;;;;;;;0.45;0.45;;;;;;;;;;5000713;28;20042;-78
2023/12/05 13:25:42;;;;;;;0.60;0.52;;;;;;;;;;5020123;28;22192;-77
2023/12/05 13:28:17;;;;;;;1.38;1.27;;;;;;;;;;5023097;28;20069;-76
2023/12/05 13:30:45;;;;;;;0.85;0.85;;;;;;;;;;5019820;28;20048;-76
2023/12/05 13:33:15;;;;;;;1.08;1.08;;;;;;;;;;5020311;28;20049;-77
2023/12/05 13:35:44;;;;;;;0.50;0.50;;;;;;;;;;5022841;28;20132;-79
2023/12/05 13:38:11;;;;;;;0.10;0.10;;;;;;;;;;4989153;28;20052;-77
2023/12/05 13:40:39;;;;;;;1.48;1.45;;;;;;;;;;5005998;28;20056;-77
2023/12/05 13:43:06;;;;;;;2.20;2.00;;;;;;;;;;5020246;28;20097;-77
2023/12/05 13:45:34;;;;;;;0.15;0.15;;;;;;;;;;5015447;28;20411;-77
2023/12/05 13:48:03;;;;;;;0.20;0.20;;;;;;;;;;5016388;28;20534;-77
2023/12/05 13:50:31;;;;;;;2.38;2.13;;;;;;;;;;5022265;28;20042;-78
2023/12/05 13:52:59;;;;;;;1.00;1.00;;;;;;;;;;5018517;28;20053;-76
2023/12/05 13:55:26;;;;;;;2.72;2.47;;;;;;;;;;5021513;28;20065;-77
2023/12/05 13:57:54;;;;;;;1.40;1.33;;;;;;;;;;5013038;28;20478;-78
2023/12/05 14:00:22;;;;;;;1.83;1.73;;;;;;;;;;5003059;28;20090;-77
2023/12/05 14:02:49;;;;;;;2.92;2.25;;;;;;;;;;5017543;28;20085;-76
2023/12/05 14:05:17;;;;;;;5.57;4.10;;;;;;;;;;5017668;28;20515;-78
2023/12/05 14:07:45;;;;;;;5.93;1.45;;;;;;;;;;5024533;28;20045;-78
2023/12/05 14:10:14;;;;;;;3.92;3.38;;;;;;;;;;5022183;28;20053;-78
2023/12/05 14:12:41;;;;;;;1.60;1.27;;;;;;;;;;5005531;28;20047;-77
2023/12/05 14:15:09;;;;;;;5.90;5.55;;;;;;;;;;5020842;28;20045;-79
2023/12/05 14:17:37;;;;;;;1.50;1.40;;;;;;;;;;5020635;28;20144;-76
2023/12/05 14:20:06;;;;;;;4.78;2.60;;;;;;;;;;5025506;28;20081;-78
2023/12/05 14:22:34;;;;;;;0.65;0.65;;;;;;;;;;5004302;28;20049;-78
2023/12/05 14:25:02;;;;;;;4.28;2.70;;;;;;;;;;5024608;28;20439;-77
2023/12/05 14:27:29;;;;;;;1.83;1.42;;;;;;;;;;5008534;28;20522;-79
2023/12/05 14:29:57;;;;;;;0.85;0.85;;;;;;;;;;5022652;28;20076;-77
2023/12/05 14:32:24;;;;;;;0.73;0.73;;;;;;;;;;5022824;28;20045;-78
2023/12/05 14:34:52;;;;;;;4.90;3.42;;;;;;;;;;5024900;28;20067;-77
2023/12/05 14:37:19;;;;;;;1.98;1.80;;;;;;;;;;5022170;28;20047;-77
2023/12/05 14:39:47;;;;;;;0.63;0.63;;;;;;;;;;5021376;28;20537;-77
2023/12/05 14:42:18;;;;;;;2.90;2.65;;;;;;;;;;5025156;28;20415;-77
2023/12/05 14:44:46;;;;;;;0.20;0.20;;;;;;;;;;5023904;28;20042;-77
2023/12/05 14:47:14;;;;;;;1.23;1.00;;;;;;;;;;5019721;28;20056;-76
2023/12/05 14:49:41;;;;;;;0.20;0.20;;;;;;;;;;5005094;28;20049;-76